createdAt,value
2019-02-15T00:02:05.093Z,65.12
2019-02-15T00:07:09.211Z,65.01
2019-02-15T00:12:13.250Z,64.89
2019-02-15T00:17:27.589Z,64.89
2019-02-15T00:22:31.642Z,65.23
2019-02-15T00:27:35.737Z,65.67
2019-02-15T00:32:39.997Z,65.21
2019-02-15T00:37:44.047Z,65.53
2019-02-15T00:42:48.152Z,65.53
2019-02-15T00:48:02.094Z,65.49
2019-02-15T00:53:27.854Z,65.62
2019-02-15T00:58:56.554Z,65.57
2019-02-15T01:04:10.050Z,65.57
2019-02-15T01:09:31.495Z,65.92
2019-02-15T01:14:35.565Z,66.13
2019-02-15T01:19:39.665Z,65.92
2019-02-15T01:24:43.732Z,65.92
2019-02-15T01:30:06.711Z,66.58
2019-02-15T01:35:41.868Z,66.35
2019-02-15T01:40:51.667Z,66.87
2019-02-15T01:46:01.019Z,66.67
2019-02-15T01:51:05.127Z,66.92
2019-02-15T01:56:09.175Z,67.48
2019-02-15T02:01:15.382Z,67.57
2019-02-15T02:06:19.740Z,67.57
2019-02-15T02:11:23.756Z,67.54
2019-02-15T02:16:27.760Z,67.31
2019-02-15T02:21:31.919Z,67.55
2019-02-15T02:26:35.949Z,67.88
2019-02-15T02:31:40.033Z,67.55
2019-02-15T02:36:48.955Z,67.89
2019-02-15T02:41:52.977Z,68.17
2019-02-15T02:46:57.126Z,68.28
2019-02-15T02:52:01.127Z,68.01
2019-02-15T02:57:05.241Z,68.38
2019-02-15T03:02:09.251Z,68.38
2019-02-15T03:07:13.421Z,68.28
2019-02-15T03:12:17.443Z,68.39
2019-02-15T03:17:21.467Z,68.60
2019-02-15T03:22:25.552Z,68.54
2019-02-15T03:27:29.669Z,68.54
2019-02-15T03:32:33.704Z,68.88
2019-02-15T03:38:05.613Z,69.42
2019-02-15T03:43:09.704Z,69.74
2019-02-15T03:48:13.854Z,69.49
2019-02-15T03:53:17.910Z,69.49
2019-02-15T03:58:22.050Z,69.89
2019-02-15T04:03:26.076Z,69.94
2019-02-15T04:08:30.111Z,70.35
2019-02-15T04:13:34.160Z,70.02
2019-02-15T04:18:38.217Z,69.85
2019-02-15T04:23:42.266Z,70.01
2019-02-15T04:28:46.310Z,70.21
2019-02-15T04:33:50.372Z,69.92
2019-02-15T04:38:55.930Z,70.38
2019-02-15T04:43:59.981Z,70.38
2019-02-15T04:49:04.075Z,69.28
2019-02-15T04:54:08.137Z,69.22
2019-02-15T04:59:12.172Z,69.22
2019-02-15T05:04:16.220Z,68.33
2019-02-15T05:09:20.261Z,68.33
2019-02-15T05:14:24.330Z,68.33
2019-02-15T05:19:28.403Z,68.16
2019-02-15T05:24:32.477Z,68.16
2019-02-15T05:29:36.581Z,68.23
2019-02-15T05:34:40.747Z,68.19
2019-02-15T05:39:44.871Z,68.06
2019-02-15T05:44:48.927Z,68.18
2019-02-15T05:49:53.264Z,67.75
2019-02-15T05:54:57.443Z,67.82
2019-02-15T06:00:01.569Z,67.82
2019-02-15T06:05:07.013Z,67.99
2019-02-15T06:10:11.107Z,67.95
2019-02-15T06:15:15.804Z,67.90
2019-02-15T06:20:20.020Z,68.04
2019-02-15T06:25:24.074Z,68.04
2019-02-15T06:30:28.099Z,67.83
2019-02-15T06:35:33.155Z,67.57
2019-02-15T06:40:37.278Z,67.71
2019-02-15T06:45:41.320Z,68.02
2019-02-15T06:50:45.347Z,67.79
2019-02-15T06:55:49.383Z,67.72
2019-02-15T07:01:21.233Z,67.62
2019-02-15T07:06:25.308Z,67.62
2019-02-15T07:11:29.321Z,67.86
2019-02-15T07:16:33.370Z,67.68
2019-02-15T07:21:37.526Z,67.87
2019-02-15T07:26:41.549Z,67.50
2019-02-15T07:31:45.597Z,67.77
2019-02-15T07:36:49.656Z,67.77
2019-02-15T07:41:53.661Z,67.48
2019-02-15T07:46:57.688Z,46.52
2019-02-15T07:52:01.724Z,47.61
2019-02-15T07:57:05.751Z,47.65
2019-02-15T08:02:09.854Z,48.30
2019-02-15T08:07:13.893Z,48.03
2019-02-15T08:12:17.950Z,48.03
2019-02-15T08:17:21.965Z,49.90
2019-02-15T08:22:25.977Z,48.74
2019-02-15T08:27:31.442Z,48.74
2019-02-15T08:32:35.572Z,47.59
2019-02-15T08:37:39.594Z,47.59
2019-02-15T08:42:43.831Z,50.18
2019-02-15T08:47:48.103Z,50.18
2019-02-15T08:52:52.223Z,51.30
2019-02-15T08:57:56.251Z,52.33
2019-02-15T09:03:00.264Z,53.13
2019-02-15T09:08:04.289Z,54.67
2019-02-15T09:13:08.294Z,55.77
2019-02-15T09:18:12.397Z,55.85
2019-02-15T09:23:16.504Z,55.90
2019-02-15T09:28:29.179Z,56.23
2019-02-15T09:33:33.342Z,56.24
2019-02-15T09:38:37.358Z,56.33
2019-02-15T09:43:41.379Z,56.33
2019-02-15T09:48:45.424Z,55.99
2019-02-15T09:53:49.451Z,56.68
2019-02-15T09:58:53.494Z,57.42
2019-02-15T10:03:57.523Z,57.87
2019-02-15T10:09:01.553Z,58.21
2019-02-15T10:14:05.570Z,58.71
2019-02-15T10:19:09.725Z,59.38
2019-02-15T10:24:13.780Z,59.02
2019-02-15T10:29:17.820Z,59.69
2019-02-15T10:34:21.846Z,59.14
2019-02-15T10:39:25.897Z,58.95
2019-02-15T10:44:29.968Z,58.95
2019-02-15T10:49:33.987Z,57.22
2019-02-15T10:54:38.009Z,56.70
2019-02-15T10:59:42.123Z,57.53
2019-02-15T11:04:46.206Z,57.85
2019-02-15T11:09:50.232Z,58.11
2019-02-15T11:14:54.249Z,58.89
2019-02-15T11:19:58.272Z,58.92
2019-02-15T11:25:02.325Z,59.42
2019-02-15T11:30:09.529Z,59.94
2019-02-15T11:35:13.836Z,60.46
2019-02-15T11:40:17.857Z,59.45
2019-02-15T11:45:22.020Z,59.61
2019-02-15T11:50:26.062Z,59.61
2019-02-15T11:55:30.100Z,59.48
2019-02-15T12:00:34.976Z,59.68
2019-02-15T12:05:39.078Z,60.16
2019-02-15T12:10:43.076Z,60.16
2019-02-15T12:15:47.098Z,60.00
2019-02-15T12:20:51.127Z,60.40
2019-02-15T12:25:55.143Z,60.65
2019-02-15T12:30:59.231Z,60.53
2019-02-15T12:36:03.252Z,60.23
2019-02-15T12:41:07.330Z,60.95
2019-02-15T12:46:11.341Z,61.05
2019-02-15T12:51:15.435Z,61.89
2019-02-15T12:56:19.455Z,61.89
2019-02-15T13:01:23.500Z,59.53
2019-02-15T13:06:28.903Z,59.34
2019-02-15T13:11:33.341Z,58.14
2019-02-15T13:16:37.541Z,56.98
2019-02-15T13:21:41.683Z,57.67
2019-02-15T13:26:45.718Z,57.08
2019-02-15T13:31:49.784Z,56.48
2019-02-15T13:36:53.876Z,56.48
2019-02-15T13:41:57.978Z,56.56
2019-02-15T13:47:02.101Z,56.67
2019-02-15T13:52:06.335Z,56.41
2019-02-15T13:57:10.418Z,55.41
2019-02-15T14:02:14.704Z,54.96
2019-02-15T14:07:20.003Z,55.14
2019-02-15T14:12:24.063Z,55.00
2019-02-15T14:17:28.185Z,54.59
2019-02-15T14:22:32.341Z,54.59
2019-02-15T14:27:36.435Z,55.51
2019-02-15T14:32:40.648Z,55.51
2019-02-15T14:37:44.782Z,55.36
2019-02-15T14:42:49.598Z,55.41
2019-02-15T14:47:55.366Z,54.88
2019-02-15T14:52:59.550Z,55.22
2019-02-15T14:58:03.746Z,53.07
2019-02-15T15:03:07.787Z,54.30
2019-02-15T15:08:11.805Z,53.73
2019-02-15T15:13:15.853Z,53.58
2019-02-15T15:18:19.939Z,53.51
2019-02-15T15:23:23.960Z,53.71
2019-02-15T15:28:27.991Z,52.92
2019-02-15T15:33:32.008Z,53.18
2019-02-15T15:39:22.565Z,53.98
2019-02-15T15:44:26.575Z,52.73
2019-02-15T15:49:30.576Z,53.08
2019-02-15T15:54:34.591Z,53.01
2019-02-15T15:59:38.605Z,52.80
2019-02-15T16:04:42.658Z,52.80
2019-02-15T16:09:46.726Z,53.80
2019-02-15T16:14:50.750Z,54.04
2019-02-15T16:19:54.767Z,54.06
2019-02-15T16:24:59.024Z,55.00
2019-02-15T16:30:03.569Z,55.11
2019-02-15T16:35:07.911Z,55.11
2019-02-15T16:40:12.698Z,55.76
2019-02-15T16:45:16.833Z,56.30
2019-02-15T16:50:20.929Z,56.29
2019-02-15T16:55:25.027Z,56.29
2019-02-15T17:00:29.036Z,56.35
2019-02-15T17:05:33.215Z,56.22
2019-02-15T17:10:37.318Z,56.22
2019-02-15T17:15:42.037Z,55.36
2019-02-15T17:20:46.608Z,56.77
2019-02-15T17:25:51.198Z,57.61
2019-02-15T17:30:55.385Z,56.48
2019-02-15T17:35:59.490Z,57.07
2019-02-15T17:41:03.711Z,57.53
2019-02-15T17:46:07.804Z,57.21
2019-02-15T17:51:11.940Z,57.50
2019-02-15T17:56:16.150Z,57.20
2019-02-15T18:01:20.383Z,57.43
2019-02-15T18:06:24.602Z,56.96
2019-02-15T18:11:28.843Z,56.95
2019-02-15T18:16:32.903Z,56.71
2019-02-15T18:21:36.958Z,56.69
2019-02-15T18:26:41.180Z,57.17
2019-02-15T18:31:45.352Z,57.41
2019-02-15T18:36:49.450Z,57.32
2019-02-15T18:41:53.511Z,57.09
2019-02-15T18:46:57.688Z,57.38
2019-02-15T18:52:01.851Z,56.67
2019-02-15T18:57:06.123Z,57.28
2019-02-15T19:02:10.300Z,56.95
2019-02-15T19:07:14.347Z,57.29
2019-02-15T19:12:18.483Z,57.29
2019-02-15T19:17:22.653Z,55.56
2019-02-15T19:22:26.723Z,55.56
2019-02-15T19:27:30.761Z,56.71
2019-02-15T19:32:34.824Z,56.71
2019-02-15T19:37:38.935Z,56.28
2019-02-15T19:42:44.727Z,56.90
2019-02-15T19:47:48.861Z,57.03
2019-02-15T19:52:52.970Z,57.43
2019-02-15T19:57:56.991Z,57.39
2019-02-15T20:03:01.100Z,56.92
2019-02-15T20:08:05.273Z,56.92
2019-02-15T20:13:09.438Z,56.54
2019-02-15T20:18:13.558Z,56.25
2019-02-15T20:23:17.597Z,56.87
2019-02-15T20:28:21.629Z,56.85
2019-02-15T20:33:25.806Z,57.42
2019-02-15T20:38:29.832Z,57.05
2019-02-15T20:43:33.873Z,57.39
2019-02-15T20:48:38.153Z,57.76
2019-02-15T20:53:42.195Z,57.50
2019-02-15T20:58:46.340Z,57.87
2019-02-15T21:03:50.375Z,58.09
2019-02-15T21:08:54.441Z,57.84
2019-02-15T21:13:59.171Z,58.36
2019-02-15T21:19:03.326Z,58.28
2019-02-15T21:24:07.387Z,58.28
2019-02-15T21:29:11.431Z,58.31
2019-02-15T21:34:15.573Z,58.93
2019-02-15T21:39:19.581Z,58.59
2019-02-15T21:44:23.726Z,58.59
2019-02-15T21:49:27.907Z,59.39
2019-02-15T21:54:32.040Z,59.08
2019-02-15T21:59:36.056Z,59.08
2019-02-15T22:04:40.166Z,59.80
2019-02-15T22:09:44.211Z,59.65
2019-02-15T22:14:48.299Z,59.65
2019-02-15T22:19:52.486Z,59.55
2019-02-15T22:24:56.513Z,59.75
2019-02-15T22:30:00.549Z,60.27
2019-02-15T22:35:04.871Z,59.68
2019-02-15T22:40:40.840Z,59.70
2019-02-15T22:45:44.852Z,59.70
2019-02-15T22:50:48.956Z,60.44
2019-02-15T22:55:53.004Z,60.43
2019-02-15T23:01:07.026Z,60.40
2019-02-15T23:06:11.292Z,60.58
2019-02-15T23:11:15.578Z,60.56
2019-02-15T23:16:19.608Z,61.08
2019-02-15T23:21:23.723Z,60.76
2019-02-15T23:26:27.894Z,60.86
2019-02-15T23:31:32.043Z,61.28
2019-02-15T23:36:36.138Z,60.95
2019-02-15T23:41:40.298Z,61.04
2019-02-15T23:46:44.749Z,61.66
2019-02-15T23:51:48.829Z,61.42
2019-02-15T23:56:52.924Z,61.77
